createdAt,value
2018-04-24T00:00:22.988Z,14.94
2018-04-24T00:01:29.728Z,14.92
2018-04-24T00:02:36.494Z,14.92
2018-04-24T00:03:43.335Z,14.87
2018-04-24T00:04:50.068Z,14.85
2018-04-24T00:05:56.846Z,14.83
2018-04-24T00:07:03.611Z,14.82
2018-04-24T00:08:10.459Z,14.79
2018-04-24T00:09:17.276Z,14.77
2018-04-24T00:10:24.026Z,14.75
2018-04-24T00:11:30.738Z,14.73
2018-04-24T00:12:37.543Z,14.71
2018-04-24T00:13:44.285Z,14.69
2018-04-24T00:14:51.046Z,14.68
2018-04-24T00:15:57.799Z,14.66
2018-04-24T00:17:04.638Z,14.65
2018-04-24T00:18:11.478Z,14.61
2018-04-24T00:19:18.173Z,14.61
2018-04-24T00:20:24.972Z,14.58
2018-04-24T00:21:31.747Z,14.57
2018-04-24T00:22:38.455Z,14.55
2018-04-24T00:23:45.244Z,14.52
2018-04-24T00:24:51.988Z,14.51
2018-04-24T00:25:58.841Z,14.49
2018-04-24T00:27:05.604Z,14.47
2018-04-24T00:28:12.331Z,14.46
2018-04-24T00:29:19.127Z,14.44
2018-04-24T00:30:25.902Z,14.40
2018-04-24T00:31:32.615Z,14.40
2018-04-24T00:32:39.370Z,14.38
2018-04-24T00:33:46.110Z,14.37
2018-04-24T00:34:52.859Z,14.33
2018-04-24T00:35:59.604Z,14.31
2018-04-24T00:37:06.386Z,14.31
2018-04-24T00:38:13.143Z,14.28
2018-04-24T00:39:19.879Z,14.26
2018-04-24T00:40:26.670Z,14.25
2018-04-24T00:41:33.410Z,14.22
2018-04-24T00:42:40.148Z,14.20
2018-04-24T00:43:46.895Z,14.18
2018-04-24T00:44:53.767Z,14.16
2018-04-24T00:46:00.539Z,14.14
2018-04-24T00:47:07.338Z,14.13
2018-04-24T00:48:14.182Z,14.11
2018-04-24T00:49:20.891Z,14.09
2018-04-24T00:50:27.675Z,14.07
2018-04-24T00:51:34.456Z,14.05
2018-04-24T00:52:41.266Z,14.02
2018-04-24T00:53:47.966Z,14.00
2018-04-24T00:54:54.708Z,13.99
2018-04-24T00:56:01.431Z,13.97
2018-04-24T00:57:08.179Z,13.94
2018-04-24T00:58:15.042Z,13.92
2018-04-24T00:59:21.799Z,13.90
2018-04-24T01:00:28.572Z,13.90
2018-04-24T01:01:35.332Z,13.88
2018-04-24T01:02:42.132Z,13.86
2018-04-24T01:03:48.880Z,13.85
2018-04-24T01:04:55.731Z,13.82
2018-04-24T01:06:02.615Z,13.79
2018-04-24T01:07:09.370Z,13.77
2018-04-24T01:08:16.133Z,13.77
2018-04-24T01:09:22.849Z,13.76
2018-04-24T01:10:29.703Z,13.73
2018-04-24T01:11:36.435Z,13.72
2018-04-24T01:12:43.180Z,13.69
2018-04-24T01:13:49.939Z,13.68
2018-04-24T01:14:56.669Z,13.66
2018-04-24T01:16:03.450Z,13.65
2018-04-24T01:17:10.222Z,13.63
2018-04-24T01:18:16.960Z,13.60
2018-04-24T01:19:23.707Z,13.60
2018-04-24T01:20:30.568Z,13.58
2018-04-24T01:21:37.325Z,13.57
2018-04-24T01:22:44.075Z,13.54
2018-04-24T01:23:50.819Z,13.53
2018-04-24T01:24:57.658Z,13.50
2018-04-24T01:26:04.363Z,13.49
2018-04-24T01:27:11.103Z,13.47
2018-04-24T01:28:17.829Z,13.47
2018-04-24T01:29:24.589Z,13.43
2018-04-24T01:30:31.375Z,13.41
2018-04-24T01:31:38.119Z,13.40
2018-04-24T01:32:44.868Z,13.38
2018-04-24T01:33:51.624Z,13.36
2018-04-24T01:34:58.434Z,13.35
2018-04-24T01:36:05.164Z,13.33
2018-04-24T01:37:11.928Z,13.32
2018-04-24T01:38:18.667Z,13.31
2018-04-24T01:39:25.487Z,13.28
2018-04-24T01:40:32.207Z,13.27
2018-04-24T01:41:38.960Z,13.26
2018-04-24T01:42:45.730Z,13.24
2018-04-24T01:43:52.589Z,13.21
2018-04-24T01:44:59.332Z,13.19
2018-04-24T01:46:06.146Z,13.19
2018-04-24T01:47:12.995Z,13.16
2018-04-24T01:48:19.811Z,13.15
2018-04-24T01:49:26.559Z,13.14
2018-04-24T01:50:33.282Z,13.13
2018-04-24T01:51:40.059Z,13.10
2018-04-24T01:52:46.770Z,13.10
2018-04-24T01:53:53.499Z,13.08
2018-04-24T01:55:00.272Z,13.06
2018-04-24T01:56:07.135Z,13.05
2018-04-24T01:57:13.904Z,13.03
2018-04-24T01:58:20.643Z,13.01
2018-04-24T01:59:27.715Z,12.99
2018-04-24T02:00:34.482Z,12.98
2018-04-24T02:01:41.325Z,12.97
2018-04-24T02:02:48.083Z,12.95
2018-04-24T02:03:54.867Z,12.94
2018-04-24T02:05:01.738Z,12.92
2018-04-24T02:06:08.540Z,12.90
2018-04-24T02:07:15.291Z,12.90
2018-04-24T02:08:22.139Z,12.86
2018-04-24T02:09:28.919Z,12.85
2018-04-24T02:10:35.684Z,12.83
2018-04-24T02:11:42.495Z,12.82
2018-04-24T02:12:49.215Z,12.80
2018-04-24T02:13:55.965Z,12.79
2018-04-24T02:15:02.747Z,12.78
2018-04-24T02:16:09.507Z,12.76
2018-04-24T02:17:16.256Z,12.74
2018-04-24T02:18:23.010Z,12.73
2018-04-24T02:19:29.732Z,12.72
2018-04-24T02:20:36.546Z,12.71
2018-04-24T02:21:43.302Z,12.69
2018-04-24T02:22:50.061Z,12.67
2018-04-24T02:23:56.809Z,12.66
2018-04-24T02:25:03.678Z,12.63
2018-04-24T02:26:10.387Z,12.63
2018-04-24T02:27:17.154Z,12.60
2018-04-24T02:28:23.889Z,12.59
2018-04-24T02:29:30.659Z,12.59
2018-04-24T02:30:37.417Z,12.57
2018-04-24T02:31:44.182Z,12.54
2018-04-24T02:32:50.934Z,12.54
2018-04-24T02:33:57.731Z,12.51
2018-04-24T02:35:04.475Z,12.51
2018-04-24T02:36:11.261Z,12.48
2018-04-24T02:37:18.103Z,12.48
2018-04-24T02:38:24.806Z,12.46
2018-04-24T02:39:31.635Z,12.45
2018-04-24T02:40:38.356Z,12.43
2018-04-24T02:41:45.204Z,12.41
2018-04-24T02:42:51.974Z,12.41
2018-04-24T02:43:58.755Z,12.38
2018-04-24T02:45:05.595Z,12.37
2018-04-24T02:46:12.359Z,12.34
2018-04-24T02:47:19.171Z,12.34
2018-04-24T02:48:26.039Z,12.32
2018-04-24T02:49:32.803Z,12.32
2018-04-24T02:50:39.554Z,12.30
2018-04-24T02:51:46.314Z,12.28
2018-04-24T02:52:53.125Z,12.27
2018-04-24T02:53:59.878Z,12.25
2018-04-24T02:55:06.688Z,12.24
2018-04-24T02:56:13.539Z,12.22
2018-04-24T02:57:20.279Z,12.20
2018-04-24T02:58:27.097Z,12.21
2018-04-24T02:59:33.962Z,12.19
2018-04-24T03:00:40.696Z,12.16
2018-04-24T03:01:47.444Z,12.14
2018-04-24T03:02:54.188Z,12.11
2018-04-24T03:04:00.994Z,12.13
2018-04-24T03:05:07.750Z,12.13
2018-04-24T03:06:14.467Z,12.09
2018-04-24T03:07:21.244Z,12.10
2018-04-24T03:08:28.083Z,12.08
2018-04-24T03:09:34.808Z,12.06
2018-04-24T03:10:41.534Z,12.03
2018-04-24T03:11:48.341Z,12.03
2018-04-24T03:12:55.179Z,12.01
2018-04-24T03:14:01.956Z,11.99
2018-04-24T03:15:08.671Z,11.98
2018-04-24T03:16:15.415Z,11.97
2018-04-24T03:17:22.214Z,11.96
2018-04-24T03:18:28.915Z,11.94
2018-04-24T03:19:35.658Z,11.93
2018-04-24T03:20:42.374Z,11.91
2018-04-24T03:21:49.107Z,11.91
2018-04-24T03:22:55.915Z,11.89
2018-04-24T03:24:02.642Z,11.87
2018-04-24T03:25:09.408Z,11.87
2018-04-24T03:26:16.138Z,11.85
2018-04-24T03:27:22.887Z,11.83
2018-04-24T03:28:29.686Z,11.83
2018-04-24T03:29:36.399Z,11.79
2018-04-24T03:30:43.139Z,11.78
2018-04-24T03:31:49.859Z,11.77
2018-04-24T03:32:56.570Z,11.74
2018-04-24T03:34:03.288Z,11.74
2018-04-24T03:35:10.027Z,11.73
2018-04-24T03:36:16.724Z,11.72
2018-04-24T03:37:23.451Z,11.70
2018-04-24T03:38:30.203Z,11.69
2018-04-24T03:39:37.010Z,11.68
2018-04-24T03:40:43.833Z,11.67
2018-04-24T03:41:50.639Z,11.66
2018-04-24T03:42:57.540Z,11.63
2018-04-24T03:44:04.523Z,11.63
2018-04-24T03:45:11.599Z,11.60
2018-04-24T03:46:18.482Z,11.59
2018-04-24T03:47:25.193Z,11.58
2018-04-24T03:48:31.960Z,11.57
2018-04-24T03:49:38.790Z,11.56
2018-04-24T03:50:45.559Z,11.55
2018-04-24T03:51:52.471Z,11.54
2018-04-24T03:52:59.174Z,11.51
2018-04-24T03:54:06.024Z,11.50
2018-04-24T03:55:12.966Z,11.50
2018-04-24T03:56:19.800Z,11.48
2018-04-24T03:57:26.515Z,11.48
2018-04-24T03:58:33.502Z,11.46
2018-04-24T03:59:40.070Z,11.45
2018-04-24T04:00:46.919Z,11.43
2018-04-24T04:01:53.736Z,11.43
2018-04-24T04:03:00.694Z,11.41
2018-04-24T04:04:07.402Z,11.40
2018-04-24T04:05:14.122Z,11.40
2018-04-24T04:06:20.882Z,11.37
2018-04-24T04:07:27.593Z,11.36
2018-04-24T04:08:34.435Z,11.32
2018-04-24T04:09:41.143Z,11.32
2018-04-24T04:10:48.040Z,11.31
2018-04-24T04:11:54.900Z,11.30
2018-04-24T04:13:01.626Z,11.28
2018-04-24T04:14:08.343Z,11.28
2018-04-24T04:15:15.126Z,11.25
2018-04-24T04:16:22.087Z,11.23
2018-04-24T04:17:28.791Z,11.21
2018-04-24T04:18:35.622Z,11.20
2018-04-24T04:19:42.614Z,11.19
2018-04-24T04:20:54.080Z,11.17
2018-04-24T04:22:01.467Z,11.18
2018-04-24T04:23:14.303Z,11.15
2018-04-24T04:24:21.795Z,11.13
2018-04-24T04:25:28.780Z,11.12
2018-04-24T04:26:35.540Z,11.11
2018-04-24T04:27:42.268Z,11.10
2018-04-24T04:28:49.156Z,11.09
2018-04-24T04:29:55.977Z,11.07
2018-04-24T04:31:02.694Z,11.05
2018-04-24T04:32:09.425Z,11.04
2018-04-24T04:33:16.114Z,11.02
2018-04-24T04:34:22.895Z,11.02
2018-04-24T04:35:29.603Z,11.00
2018-04-24T04:36:36.327Z,11.00
2018-04-24T04:37:43.062Z,10.97
2018-04-24T04:38:49.819Z,10.96
2018-04-24T04:39:56.530Z,10.96
2018-04-24T04:41:03.306Z,10.94
2018-04-24T04:42:09.997Z,10.93
2018-04-24T04:43:16.754Z,10.92
2018-04-24T04:44:23.489Z,10.91
2018-04-24T04:45:30.218Z,10.91
2018-04-24T04:46:36.906Z,10.87
2018-04-24T04:47:43.783Z,10.88
2018-04-24T04:48:50.492Z,10.86
2018-04-24T04:49:57.198Z,10.85
2018-04-24T04:51:03.932Z,10.84
2018-04-24T04:52:10.639Z,10.83
2018-04-24T04:53:17.502Z,10.81
2018-04-24T04:54:24.192Z,10.81
2018-04-24T04:55:30.897Z,10.79
2018-04-24T04:56:37.622Z,10.78
2018-04-24T04:57:44.378Z,10.76
2018-04-24T04:58:51.214Z,10.75
2018-04-24T04:59:57.931Z,10.74
2018-04-24T05:01:04.644Z,10.74
2018-04-24T05:02:11.379Z,10.72
2018-04-24T05:03:18.094Z,10.72
2018-04-24T05:04:24.919Z,10.71
2018-04-24T05:05:31.621Z,10.69
2018-04-24T05:06:38.342Z,10.68
2018-04-24T05:07:45.075Z,10.67
2018-04-24T05:08:51.793Z,10.67
2018-04-24T05:09:58.636Z,10.66
2018-04-24T05:11:05.480Z,10.65
2018-04-24T05:12:12.222Z,10.64
2018-04-24T05:13:19.034Z,10.62
2018-04-24T05:14:25.760Z,10.61
2018-04-24T05:15:32.600Z,10.62
2018-04-24T05:16:39.326Z,10.61
2018-04-24T05:17:46.111Z,10.60
2018-04-24T05:18:52.858Z,10.58
2018-04-24T05:19:59.600Z,10.58
2018-04-24T05:21:06.327Z,10.56
2018-04-24T05:22:13.045Z,10.56
2018-04-24T05:23:19.863Z,10.56
2018-04-24T05:24:26.601Z,10.54
2018-04-24T05:25:33.334Z,10.54
2018-04-24T05:26:40.080Z,10.52
2018-04-24T05:27:46.811Z,10.52
2018-04-24T05:28:53.783Z,10.52
2018-04-24T05:30:00.481Z,10.52
2018-04-24T05:31:07.392Z,10.51
2018-04-24T05:32:14.078Z,10.51
2018-04-24T05:33:20.807Z,10.50
2018-04-24T05:34:27.568Z,10.48
2018-04-24T05:35:34.507Z,10.49
2018-04-24T05:36:41.231Z,10.47
2018-04-24T05:37:47.958Z,10.47
2018-04-24T05:38:54.684Z,10.47
2018-04-24T05:40:01.425Z,10.46
2018-04-24T05:41:08.219Z,10.46
2018-04-24T05:42:14.923Z,10.45
2018-04-24T05:43:21.648Z,10.46
2018-04-24T05:44:28.344Z,10.44
2018-04-24T05:45:35.092Z,10.44
2018-04-24T05:46:41.801Z,10.43
2018-04-24T05:47:48.608Z,10.45
2018-04-24T05:48:55.316Z,10.45
2018-04-24T05:50:02.040Z,10.43
2018-04-24T05:51:08.827Z,10.42
2018-04-24T05:52:15.541Z,10.44
2018-04-24T05:53:22.351Z,10.43
2018-04-24T05:54:29.091Z,10.42
2018-04-24T05:55:35.803Z,10.42
2018-04-24T05:56:42.567Z,10.43
2018-04-24T05:57:49.307Z,10.43
2018-04-24T05:58:56.092Z,10.45
2018-04-24T06:00:02.816Z,10.45
2018-04-24T06:01:09.589Z,10.44
2018-04-24T06:02:16.351Z,10.44
2018-04-24T06:03:23.166Z,10.44
2018-04-24T06:04:29.899Z,10.45
2018-04-24T06:05:36.654Z,10.44
2018-04-24T06:06:43.486Z,10.46
2018-04-24T06:07:50.248Z,10.47
2018-04-24T06:08:56.998Z,10.46
2018-04-24T06:10:03.751Z,10.45
2018-04-24T06:11:10.570Z,10.44
2018-04-24T06:12:17.350Z,10.46
2018-04-24T06:13:24.109Z,10.47
2018-04-24T06:14:30.891Z,10.46
2018-04-24T06:15:37.612Z,10.47
2018-04-24T06:16:44.383Z,10.47
2018-04-24T06:17:51.198Z,10.48
2018-04-24T06:18:57.926Z,10.49
2018-04-24T06:20:04.686Z,10.48
2018-04-24T06:21:11.497Z,10.50
2018-04-24T06:22:18.270Z,10.49
2018-04-24T06:23:25.007Z,10.51
2018-04-24T06:24:31.748Z,10.49
2018-04-24T06:25:38.586Z,10.50
2018-04-24T06:26:45.323Z,10.52
2018-04-24T06:27:52.055Z,10.51
2018-04-24T06:28:58.791Z,10.52
2018-04-24T06:30:05.495Z,10.52
2018-04-24T06:31:12.275Z,10.53
2018-04-24T06:32:19.146Z,10.54
2018-04-24T06:33:25.955Z,10.55
2018-04-24T06:34:32.698Z,10.56
2018-04-24T06:35:39.408Z,10.55
2018-04-24T06:36:46.166Z,10.56
2018-04-24T06:37:52.946Z,10.57
2018-04-24T06:38:59.768Z,10.57
2018-04-24T06:40:06.550Z,10.57
2018-04-24T06:41:13.315Z,10.58
2018-04-24T06:42:20.046Z,10.59
2018-04-24T06:43:26.867Z,10.61
2018-04-24T06:44:33.615Z,10.61
2018-04-24T06:45:40.346Z,10.62
2018-04-24T06:46:47.089Z,10.64
2018-04-24T06:47:53.919Z,10.64
2018-04-24T06:49:00.725Z,10.63
2018-04-24T06:50:07.448Z,10.66
2018-04-24T06:51:14.147Z,10.66
2018-04-24T06:52:20.959Z,10.68
2018-04-24T06:53:27.870Z,10.69
2018-04-24T06:54:34.583Z,10.69
2018-04-24T06:55:41.389Z,10.71
2018-04-24T06:56:48.099Z,10.71
2018-04-24T06:57:54.815Z,10.72
2018-04-24T06:59:01.588Z,10.72
2018-04-24T07:00:08.438Z,10.74
2018-04-24T07:01:15.119Z,10.75
2018-04-24T07:02:21.857Z,10.76
2018-04-24T07:03:28.596Z,10.78
2018-04-24T07:04:35.518Z,10.78
2018-04-24T07:05:42.199Z,10.79
2018-04-24T07:06:48.888Z,10.82
2018-04-24T07:07:55.607Z,10.84
2018-04-24T07:09:02.356Z,10.85
2018-04-24T07:10:09.360Z,10.86
2018-04-24T07:11:16.066Z,10.89
2018-04-24T07:12:22.874Z,10.88
2018-04-24T07:13:29.708Z,10.90
2018-04-24T07:14:36.416Z,10.92
2018-04-24T07:15:43.146Z,10.93
2018-04-24T07:16:49.885Z,10.93
2018-04-24T07:17:56.562Z,10.96
2018-04-24T07:19:03.414Z,10.97
2018-04-24T07:20:10.199Z,10.98
2018-04-24T07:21:16.866Z,10.99
2018-04-24T07:22:23.593Z,11.00
2018-04-24T07:23:30.274Z,11.01
2018-04-24T07:24:37.135Z,11.02
2018-04-24T07:25:43.821Z,11.05
2018-04-24T07:26:50.564Z,11.06
2018-04-24T07:27:57.293Z,11.08
2018-04-24T07:29:04.020Z,11.10
2018-04-24T07:30:10.858Z,11.10
2018-04-24T07:31:17.552Z,11.12
2018-04-24T07:32:24.266Z,11.14
2018-04-24T07:33:31.016Z,11.14
2018-04-24T07:34:37.939Z,11.17
2018-04-24T07:35:44.903Z,11.16
2018-04-24T07:36:51.720Z,11.19
2018-04-24T07:37:58.487Z,11.20
2018-04-24T07:39:05.211Z,11.23
2018-04-24T07:40:11.950Z,11.23
2018-04-24T07:41:18.747Z,11.26
2018-04-24T07:42:25.915Z,11.29
2018-04-24T07:43:32.615Z,11.30
2018-04-24T07:44:39.482Z,11.31
2018-04-24T07:45:46.194Z,11.34
2018-04-24T07:46:53.081Z,11.35
2018-04-24T07:47:59.778Z,11.36
2018-04-24T07:49:06.491Z,11.38
2018-04-24T07:50:13.439Z,11.40
2018-04-24T07:51:22.289Z,11.41
2018-04-24T07:52:27.225Z,11.43
2018-04-24T07:53:33.977Z,11.45
2018-04-24T07:54:41.611Z,11.45
2018-04-24T07:55:47.748Z,11.49
2018-04-24T07:56:54.583Z,11.49
2018-04-24T07:58:01.474Z,11.52
2018-04-24T07:59:08.264Z,11.53
2018-04-24T08:00:20.759Z,11.54
2018-04-24T08:01:22.019Z,11.57
2018-04-24T08:02:28.832Z,11.59
2018-04-24T08:03:35.677Z,11.60
2018-04-24T08:04:42.391Z,11.61
2018-04-24T08:05:49.164Z,11.63
2018-04-24T08:06:56.122Z,11.63
2018-04-24T08:08:02.818Z,11.67
2018-04-24T08:09:09.549Z,11.68
2018-04-24T08:10:16.287Z,11.70
2018-04-24T08:11:23.206Z,11.72
2018-04-24T08:12:29.907Z,11.73
2018-04-24T08:13:36.646Z,11.75
2018-04-24T08:14:43.415Z,11.76
2018-04-24T08:15:50.145Z,11.79
2018-04-24T08:16:56.895Z,11.79
2018-04-24T08:18:03.595Z,11.82
2018-04-24T08:19:10.299Z,11.83
2018-04-24T08:20:17.013Z,11.85
2018-04-24T08:21:23.736Z,11.88
2018-04-24T08:22:30.626Z,11.90
2018-04-24T08:23:37.442Z,11.91
2018-04-24T08:24:44.171Z,11.92
2018-04-24T08:25:50.920Z,11.95
2018-04-24T08:26:57.696Z,11.97
2018-04-24T08:28:04.367Z,11.98
2018-04-24T08:29:11.102Z,12.01
2018-04-24T08:30:17.795Z,12.01
2018-04-24T08:31:24.540Z,12.05
2018-04-24T08:32:31.245Z,12.05
2018-04-24T08:33:38.118Z,12.07
2018-04-24T08:34:44.779Z,12.10
2018-04-24T08:35:51.543Z,12.13
2018-04-24T08:36:58.267Z,12.14
2018-04-24T08:38:05.044Z,12.16
2018-04-24T08:39:11.780Z,12.18
2018-04-24T08:40:18.470Z,12.19
2018-04-24T08:41:25.183Z,12.20
2018-04-24T08:42:31.968Z,12.23
2018-04-24T08:43:38.992Z,12.25
2018-04-24T08:44:45.798Z,12.27
2018-04-24T08:45:52.604Z,12.29
2018-04-24T08:46:59.330Z,12.29
2018-04-24T08:48:06.083Z,12.32
2018-04-24T08:49:12.815Z,12.35
2018-04-24T08:50:19.527Z,12.37
2018-04-24T08:51:26.309Z,12.37
2018-04-24T08:52:33.314Z,12.40
2018-04-24T08:53:39.996Z,12.42
2018-04-24T08:54:46.798Z,12.44
2018-04-24T08:55:53.539Z,12.45
2018-04-24T08:57:00.239Z,12.49
2018-04-24T08:58:07.037Z,12.52
2018-04-24T08:59:13.879Z,12.53
2018-04-24T09:00:20.676Z,12.55
2018-04-24T09:01:27.404Z,12.58
2018-04-24T09:02:34.126Z,12.60
2018-04-24T09:03:40.814Z,12.61
2018-04-24T09:04:47.591Z,12.63
2018-04-24T09:05:54.439Z,12.67
2018-04-24T09:07:01.235Z,12.69
2018-04-24T09:08:08.387Z,12.72
2018-04-24T09:09:14.808Z,12.74
2018-04-24T09:10:22.072Z,12.76
2018-04-24T09:11:28.682Z,12.78
2018-04-24T09:12:35.655Z,12.82
2018-04-24T09:13:42.583Z,12.85
2018-04-24T09:14:49.384Z,12.88
2018-04-24T09:15:56.450Z,12.89
2018-04-24T09:17:03.315Z,12.91
2018-04-24T09:18:11.041Z,12.94
2018-04-24T09:19:17.051Z,12.96
2018-04-24T09:20:24.090Z,12.99
2018-04-24T09:21:30.762Z,13.01
2018-04-24T09:22:37.551Z,13.04
2018-04-24T09:23:44.734Z,13.05
2018-04-24T09:24:51.628Z,13.09
2018-04-24T09:25:58.382Z,13.11
2018-04-24T09:27:05.122Z,13.14
2018-04-24T09:28:11.846Z,13.16
2018-04-24T09:29:18.591Z,13.19
2018-04-24T09:30:25.417Z,13.20
2018-04-24T09:31:32.161Z,13.23
2018-04-24T09:32:38.927Z,13.26
2018-04-24T09:33:45.696Z,13.28
2018-04-24T09:34:52.463Z,13.29
2018-04-24T09:35:59.164Z,13.32
2018-04-24T09:37:05.870Z,13.35
2018-04-24T09:38:12.587Z,13.37
2018-04-24T09:39:19.340Z,13.40
2018-04-24T09:40:26.150Z,13.44
2018-04-24T09:41:32.902Z,13.46
2018-04-24T09:42:39.636Z,13.49
2018-04-24T09:43:46.372Z,13.50
2018-04-24T09:44:53.202Z,13.54
2018-04-24T09:45:59.975Z,13.57
2018-04-24T09:47:06.699Z,13.60
2018-04-24T09:48:13.417Z,13.62
2018-04-24T09:49:20.235Z,13.66
2018-04-24T09:50:26.964Z,13.69
2018-04-24T09:51:34.011Z,13.72
2018-04-24T09:52:40.740Z,13.74
2018-04-24T09:53:47.464Z,13.78
2018-04-24T09:54:54.605Z,13.83
2018-04-24T09:56:01.227Z,13.86
2018-04-24T09:57:08.056Z,13.89
2018-04-24T09:58:14.823Z,13.90
2018-04-24T09:59:21.540Z,13.93
2018-04-24T10:00:28.283Z,13.96
2018-04-24T10:01:35.075Z,13.99
2018-04-24T10:02:41.873Z,14.03
2018-04-24T10:03:48.560Z,14.05
2018-04-24T10:04:55.494Z,14.07
2018-04-24T10:06:02.210Z,14.11
2018-04-24T10:07:09.079Z,14.12
2018-04-24T10:08:15.835Z,14.16
2018-04-24T10:09:22.615Z,14.20
2018-04-24T10:10:29.403Z,14.22
2018-04-24T10:11:36.142Z,14.25
2018-04-24T10:12:42.849Z,14.28
2018-04-24T10:13:49.616Z,14.30
2018-04-24T10:14:56.259Z,14.33
2018-04-24T10:16:03.076Z,14.36
2018-04-24T10:17:09.815Z,14.36
2018-04-24T10:18:16.506Z,14.40
2018-04-24T10:19:23.223Z,14.42
2018-04-24T10:20:30.070Z,14.46
2018-04-24T10:21:36.792Z,14.48
2018-04-24T10:22:43.622Z,14.52
2018-04-24T10:23:50.375Z,14.55
2018-04-24T10:24:57.075Z,14.58
2018-04-24T10:26:03.771Z,14.60
2018-04-24T10:27:10.457Z,14.62
2018-04-24T10:28:17.198Z,14.65
2018-04-24T10:29:23.903Z,14.68
2018-04-24T10:30:30.599Z,14.71
2018-04-24T10:31:37.396Z,14.74
2018-04-24T10:32:44.084Z,14.76
2018-04-24T10:33:50.783Z,14.79
2018-04-24T10:34:57.484Z,14.83
2018-04-24T10:36:04.218Z,14.85
2018-04-24T10:37:10.927Z,14.89
2018-04-24T10:38:17.682Z,14.91
2018-04-24T10:39:24.448Z,14.94
2018-04-24T10:40:31.198Z,14.98
2018-04-24T10:41:37.998Z,15.00
2018-04-24T10:42:44.810Z,15.03
2018-04-24T10:43:51.609Z,15.06
2018-04-24T10:44:58.324Z,15.09
2018-04-24T10:46:05.091Z,15.13
2018-04-24T10:47:11.800Z,15.15
2018-04-24T10:48:18.682Z,15.19
2018-04-24T10:49:25.667Z,15.22
2018-04-24T10:50:32.387Z,15.25
2018-04-24T10:51:39.210Z,15.26
2018-04-24T10:52:45.889Z,15.30
2018-04-24T10:53:52.643Z,15.32
2018-04-24T10:54:59.358Z,15.35
2018-04-24T10:56:06.355Z,15.37
2018-04-24T10:57:13.091Z,15.39
2018-04-24T10:58:20.821Z,15.42
2018-04-24T10:59:26.835Z,15.46
2018-04-24T11:00:33.724Z,15.49
2018-04-24T11:01:40.382Z,15.52
2018-04-24T11:02:47.123Z,15.54
2018-04-24T11:03:53.873Z,15.56
2018-04-24T11:05:00.740Z,15.58
2018-04-24T11:06:07.511Z,15.61
2018-04-24T11:07:14.279Z,15.65
2018-04-24T11:08:21.083Z,15.69
2018-04-24T11:09:27.997Z,15.69
2018-04-24T11:10:34.829Z,15.72
2018-04-24T11:11:41.540Z,15.74
2018-04-24T11:12:48.487Z,15.77
2018-04-24T11:13:55.286Z,15.78
2018-04-24T11:15:02.022Z,15.82
2018-04-24T11:16:08.839Z,15.86
2018-04-24T11:17:15.575Z,15.88
2018-04-24T11:18:22.319Z,15.91
2018-04-24T11:19:29.060Z,15.93
2018-04-24T11:20:35.777Z,15.96
2018-04-24T11:21:42.578Z,15.97
2018-04-24T11:22:50.511Z,15.99
2018-04-24T11:23:56.355Z,16.02
2018-04-24T11:25:03.033Z,16.05
2018-04-24T11:26:09.751Z,16.08
2018-04-24T11:27:16.736Z,16.10
2018-04-24T11:28:23.476Z,16.12
2018-04-24T11:29:30.263Z,16.14
2018-04-24T11:30:37.118Z,16.17
2018-04-24T11:31:43.846Z,16.19
2018-04-24T11:32:50.611Z,16.20
2018-04-24T11:33:57.310Z,16.22
2018-04-24T11:35:04.157Z,16.25
2018-04-24T11:36:10.879Z,16.26
2018-04-24T11:37:17.679Z,16.30
2018-04-24T11:38:24.500Z,16.31
2018-04-24T11:39:31.295Z,16.34
2018-04-24T11:40:38.023Z,16.36
2018-04-24T11:41:44.744Z,16.36
2018-04-24T11:42:51.523Z,16.40
2018-04-24T11:43:58.254Z,16.43
2018-04-24T11:45:05.049Z,16.45
2018-04-24T11:46:11.818Z,16.47
2018-04-24T11:47:18.540Z,16.49
2018-04-24T11:48:25.323Z,16.50
2018-04-24T11:49:32.163Z,16.52
2018-04-24T11:50:38.785Z,16.55
2018-04-24T11:51:45.508Z,16.57
2018-04-24T11:52:52.206Z,16.59
2018-04-24T11:53:58.931Z,16.61
2018-04-24T11:55:05.675Z,16.63
2018-04-24T11:56:12.538Z,16.67
2018-04-24T11:57:19.273Z,16.68
2018-04-24T11:58:25.988Z,16.70
2018-04-24T11:59:32.763Z,16.73
2018-04-24T12:00:39.554Z,16.76
2018-04-24T12:01:46.283Z,16.77
2018-04-24T12:02:53.176Z,16.79
2018-04-24T12:03:59.967Z,16.81
2018-04-24T12:05:06.796Z,16.84
2018-04-24T12:06:13.603Z,16.87
2018-04-24T12:07:20.314Z,16.88
2018-04-24T12:08:27.080Z,16.90
2018-04-24T12:09:33.843Z,16.93
2018-04-24T12:10:40.627Z,16.94
2018-04-24T12:11:47.723Z,16.96
2018-04-24T12:12:54.464Z,16.99
2018-04-24T12:14:01.240Z,17.01
2018-04-24T12:15:08.095Z,17.02
2018-04-24T12:16:14.839Z,17.07
2018-04-24T12:17:21.612Z,17.08
2018-04-24T12:18:28.357Z,17.11
2018-04-24T12:19:35.142Z,17.12
2018-04-24T12:20:41.934Z,17.15
2018-04-24T12:21:48.691Z,17.18
2018-04-24T12:22:55.537Z,17.19
2018-04-24T12:24:02.289Z,17.20
2018-04-24T12:25:09.095Z,17.22
2018-04-24T12:26:15.982Z,17.24
2018-04-24T12:27:22.708Z,17.26
2018-04-24T12:28:29.463Z,17.27
2018-04-24T12:29:36.217Z,17.29
2018-04-24T12:30:42.973Z,17.31
2018-04-24T12:31:49.791Z,17.31
2018-04-24T12:32:56.515Z,17.33
2018-04-24T12:34:03.204Z,17.36
2018-04-24T12:35:10.003Z,17.39
2018-04-24T12:36:16.706Z,17.39
2018-04-24T12:37:23.475Z,17.41
2018-04-24T12:38:30.206Z,17.43
2018-04-24T12:39:36.994Z,17.45
2018-04-24T12:40:43.789Z,17.45
2018-04-24T12:41:50.535Z,17.48
2018-04-24T12:42:57.383Z,17.49
2018-04-24T12:44:04.122Z,17.51
2018-04-24T12:45:10.920Z,17.53
2018-04-24T12:46:17.579Z,17.54
2018-04-24T12:47:24.392Z,17.56
2018-04-24T12:48:31.130Z,17.58
2018-04-24T12:49:37.899Z,17.61
2018-04-24T12:50:44.747Z,17.62
2018-04-24T12:51:51.556Z,17.63
2018-04-24T12:52:58.263Z,17.65
2018-04-24T12:54:05.116Z,17.67
2018-04-24T12:55:11.866Z,17.68
2018-04-24T12:56:18.614Z,17.69
2018-04-24T12:57:25.334Z,17.72
2018-04-24T12:58:32.159Z,17.75
2018-04-24T12:59:38.920Z,17.75
2018-04-24T13:00:45.667Z,17.77
2018-04-24T13:01:52.367Z,17.79
2018-04-24T13:02:59.167Z,17.80
2018-04-24T13:04:06.242Z,17.81
2018-04-24T13:05:13.061Z,17.84
2018-04-24T13:06:20.072Z,17.85
2018-04-24T13:07:26.787Z,17.86
2018-04-24T13:08:33.867Z,17.89
2018-04-24T13:09:40.579Z,17.90
2018-04-24T13:10:47.303Z,17.91
2018-04-24T13:11:54.059Z,17.94
2018-04-24T13:13:00.835Z,17.95
2018-04-24T13:14:07.599Z,17.96
2018-04-24T13:15:14.355Z,17.98
2018-04-24T13:16:21.070Z,18.00
2018-04-24T13:17:28.073Z,18.01
2018-04-24T13:18:34.822Z,18.04
2018-04-24T13:19:41.601Z,18.05
2018-04-24T13:20:48.323Z,18.07
2018-04-24T13:21:55.035Z,18.09
2018-04-24T13:23:01.788Z,18.10
2018-04-24T13:24:08.623Z,18.12
2018-04-24T13:25:15.375Z,18.14
2018-04-24T13:26:22.134Z,18.15
2018-04-24T13:27:28.983Z,18.15
2018-04-24T13:28:35.735Z,18.18
2018-04-24T13:29:42.710Z,18.19
2018-04-24T13:30:49.424Z,18.21
2018-04-24T13:31:56.167Z,18.20
2018-04-24T13:33:02.914Z,18.22
2018-04-24T13:34:09.750Z,18.26
2018-04-24T13:35:16.501Z,18.26
2018-04-24T13:36:23.231Z,18.27
2018-04-24T13:37:30.116Z,18.29
2018-04-24T13:38:36.794Z,18.31
2018-04-24T13:39:43.554Z,18.31
2018-04-24T13:40:50.286Z,18.33
2018-04-24T13:41:57.104Z,18.35
2018-04-24T13:43:03.809Z,18.35
2018-04-24T13:44:10.558Z,18.37
2018-04-24T13:45:17.307Z,18.37
2018-04-24T13:46:24.083Z,18.40
2018-04-24T13:47:31.267Z,18.39
2018-04-24T13:48:37.971Z,18.41
2018-04-24T13:49:44.738Z,18.42
2018-04-24T13:50:51.531Z,18.44
2018-04-24T13:51:58.232Z,18.45
2018-04-24T13:53:04.978Z,18.46
2018-04-24T13:54:11.731Z,18.48
2018-04-24T13:55:18.448Z,18.50
2018-04-24T13:56:25.207Z,18.52
2018-04-24T13:57:31.910Z,18.51
2018-04-24T13:58:38.666Z,18.54
2018-04-24T13:59:45.433Z,18.55
2018-04-24T14:00:52.258Z,18.57
2018-04-24T14:01:58.988Z,18.58
2018-04-24T14:03:05.771Z,18.58
2018-04-24T14:04:12.517Z,18.59
2018-04-24T14:05:19.328Z,18.60
2018-04-24T14:06:26.147Z,18.61
2018-04-24T14:07:32.815Z,18.63
2018-04-24T14:08:39.615Z,18.63
2018-04-24T14:09:46.379Z,18.65
2018-04-24T14:10:53.138Z,18.66
2018-04-24T14:11:59.954Z,18.67
2018-04-24T14:13:06.658Z,18.70
2018-04-24T14:14:13.371Z,18.70
2018-04-24T14:15:20.119Z,18.71
2018-04-24T14:16:26.950Z,18.73
2018-04-24T14:17:33.652Z,18.74
2018-04-24T14:18:40.400Z,18.76
2018-04-24T14:19:47.217Z,18.75